This is the latest recevied weather packets stored in our database for station/object EA1AV-7. If no packets are shown the sender has not sent any weather packets the latest 1 day(s).
| Time | Temp. | Humidity | Pressure | Rain* | Wind** | Luminosity | Snow |
|---|---|---|---|---|---|---|---|
| 1778010677 | 23.89° C | 38% | 919.9 hPa | - | - | - | - |
| 1778010377 | 26.67° C | 42% | 919.7 hPa | - | - | - | - |
| 1778010120 | 26.67° C | 43% | 919.7 hPa | - | - | - | - |
| 1778010077 | 26.67° C | 43% | 919.7 hPa | - | - | - | - |
| 1778009776 | 26.67° C | 42% | 919.7 hPa | - | - | - | - |
| 1778009476 | 26.67° C | 42% | 919.7 hPa | - | - | - | - |
| 1778009176 | 26.67° C | 42% | 919.7 hPa | - | - | - | - |
| 1778008876 | 27.22° C | 42% | 919.6 hPa | - | - | - | - |
| 1778008577 | 27.22° C | 42% | 919.6 hPa | - | - | - | - |
| 1778008277 | 27.78° C | 41% | 919.5 hPa | - | - | - | - |
| 1778007964 | 27.78° C | 41% | 919.6 hPa | - | - | - | - |
| 1778007663 | 27.78° C | 41% | 919.6 hPa | - | - | - | - |
| 1778007363 | 27.78° C | 40% | 919.6 hPa | - | - | - | - |
| 1778007063 | 28.33° C | 40% | 919.6 hPa | - | - | - | - |
| 1778006764 | 28.89° C | 39% | 919.5 hPa | - | - | - | - |
| 1778006454 | 29.44° C | 38% | 919.5 hPa | - | - | - | - |
| 1778006154 | 30° C | 37% | 919.5 hPa | - | - | - | - |
| 1778005844 | 31.11° C | 36% | 919.5 hPa | - | - | - | - |
| 1778005544 | 33.33° C | 33% | 919.6 hPa | - | - | - | - |
| 1778005244 | 33.89° C | 34% | 919.5 hPa | - | - | - | - |
| 1778004944 | 31.11° C | 38% | 919.5 hPa | - | - | - | - |
| 1778004643 | 27.22° C | 44% | 919.2 hPa | - | - | - | - |
| 1778004343 | 25.56° C | 49% | 919.2 hPa | - | - | - | - |
| 1778004043 | 25° C | 50% | 919.2 hPa | - | - | - | - |
| 1778003743 | 23.89° C | 52% | 919.2 hPa | - | - | - | - |
* Rain since midnight (hover to see other rain measurements)
** Current wind speed in m/s (hover to see current wind gust speed)